createdAt,value
2022-11-29T00:01:32.668Z,101174.19
2022-11-29T00:04:00.379Z,101175.91
2022-11-29T00:06:29.493Z,101171.63
2022-11-29T00:08:57.934Z,101177.63
2022-11-29T00:11:45.862Z,101174.97
2022-11-29T00:14:15.381Z,101172.38
2022-11-29T00:16:43.568Z,101175.13
2022-11-29T00:19:11.961Z,101178.56
2022-11-29T00:21:38.940Z,101180.25
2022-11-29T00:24:06.351Z,101176.03
2022-11-29T00:26:32.810Z,101173.44
2022-11-29T00:28:59.267Z,101175.22
2022-11-29T00:31:32.555Z,101182.03
2022-11-29T00:34:01.657Z,101179.50
2022-11-29T00:36:29.062Z,101180.34
2022-11-29T00:38:56.274Z,101180.34
2022-11-29T00:41:23.056Z,101180.34
2022-11-29T00:43:49.554Z,101182.16
2022-11-29T00:46:16.213Z,101184.84
2022-11-29T00:48:42.745Z,101181.41
2022-11-29T00:51:09.564Z,101179.56
2022-11-29T00:53:36.924Z,101177.88
2022-11-29T00:56:04.604Z,101177.91
2022-11-29T00:58:31.370Z,101174.50
2022-11-29T01:00:58.106Z,101180.56
2022-11-29T01:03:24.938Z,101179.69
2022-11-29T01:05:52.218Z,101178.03
2022-11-29T01:08:19.114Z,101184.94
2022-11-29T01:10:45.682Z,101185.78
2022-11-29T01:13:12.123Z,101191.75
2022-11-29T01:15:38.649Z,101187.50
2022-11-29T01:18:05.637Z,101189.22
2022-11-29T01:20:32.143Z,101184.06
2022-11-29T01:22:58.986Z,101190.03
2022-11-29T01:25:26.628Z,101191.78
2022-11-29T01:27:54.309Z,101194.34
2022-11-29T01:30:21.426Z,101196.03
2022-11-29T01:32:48.024Z,101197.72
2022-11-29T01:35:14.480Z,101197.69
2022-11-29T01:37:41.137Z,101196.78
2022-11-29T01:40:08.375Z,101204.56
2022-11-29T01:42:34.866Z,101201.06
2022-11-29T01:45:21.542Z,101200.22
2022-11-29T01:47:52.664Z,101204.50
2022-11-29T01:50:20.100Z,101203.66
2022-11-29T01:52:48.281Z,101216.59
2022-11-29T01:55:15.672Z,101206.41
2022-11-29T01:57:44.187Z,101210.75
2022-11-29T02:00:14.531Z,101211.53
2022-11-29T02:02:45.661Z,101220.22
2022-11-29T02:05:14.704Z,101218.50
2022-11-29T02:07:46.128Z,101216.75
2022-11-29T02:10:15.666Z,101210.69
2022-11-29T02:12:51.436Z,101213.91
2022-11-29T02:15:46.886Z,101218.34
2022-11-29T02:18:21.975Z,101223.53
2022-11-29T02:21:09.797Z,101218.34
2022-11-29T02:24:09.728Z,101221.81
2022-11-29T02:27:02.612Z,101223.63
2022-11-29T02:29:32.199Z,101221.09
2022-11-29T02:32:17.550Z,101223.69
2022-11-29T02:35:21.222Z,101228.00
2022-11-29T02:38:23.960Z,101227.16
2022-11-29T02:41:12.219Z,101235.81
2022-11-29T02:44:06.830Z,101238.41
2022-11-29T02:47:10.503Z,101233.19
2022-11-29T02:49:39.901Z,101241.00
2022-11-29T02:52:32.487Z,101238.41
2022-11-29T02:55:07.300Z,101240.94
2022-11-29T02:57:47.487Z,101244.38
2022-11-29T03:00:18.510Z,101248.69
2022-11-29T03:02:51.304Z,101252.09
2022-11-29T03:05:35.812Z,101250.41
2022-11-29T03:08:24.463Z,101253.00
2022-11-29T03:11:35.785Z,101255.53
2022-11-29T03:14:37.841Z,101258.16
2022-11-29T03:17:35.224Z,101257.31
2022-11-29T03:20:24.095Z,101265.09
2022-11-29T03:22:53.357Z,101266.00
2022-11-29T03:25:29.745Z,101266.88
2022-11-29T03:28:06.436Z,101272.00
2022-11-29T03:30:38.430Z,101288.38
2022-11-29T03:33:09.710Z,101280.72
2022-11-29T03:35:39.221Z,101277.19
2022-11-29T03:38:21.173Z,101285.81
2022-11-29T03:41:01.240Z,101292.72
2022-11-29T03:43:39.370Z,101291.06
2022-11-29T03:46:16.011Z,101285.97
2022-11-29T03:49:17.971Z,101285.97
2022-11-29T03:52:19.070Z,101295.50
2022-11-29T03:55:06.208Z,101296.34
2022-11-29T03:58:11.065Z,101297.19
2022-11-29T04:00:49.592Z,101304.06
2022-11-29T04:03:43.315Z,101302.47
2022-11-29T04:06:39.134Z,101300.81
2022-11-29T04:09:21.010Z,101303.34
2022-11-29T04:12:22.280Z,101306.88
2022-11-29T04:15:22.790Z,101310.31
2022-11-29T04:18:07.127Z,101314.59
2022-11-29T04:20:52.303Z,101316.47
2022-11-29T04:23:56.850Z,101324.28
2022-11-29T04:26:58.771Z,101327.72
2022-11-29T04:29:37.526Z,101329.38
2022-11-29T04:32:23.638Z,101322.56
2022-11-29T04:35:02.745Z,101329.47
2022-11-29T04:37:50.135Z,101325.03
2022-11-29T04:40:37.394Z,101327.72
2022-11-29T04:43:09.994Z,101333.00
2022-11-29T04:45:49.513Z,101337.31
2022-11-29T04:48:18.735Z,101340.72
2022-11-29T04:51:16.628Z,101338.06
2022-11-29T04:53:52.041Z,101339.91
2022-11-29T04:56:40.673Z,101346.88
2022-11-29T04:59:25.738Z,101346.00
2022-11-29T05:02:51.395Z,101346.03
2022-11-29T05:05:29.717Z,101345.19
2022-11-29T05:08:17.849Z,101343.44
2022-11-29T05:10:56.557Z,101347.81
2022-11-29T05:13:40.815Z,101353.06
2022-11-29T05:16:15.408Z,101353.97
2022-11-29T05:18:58.204Z,101362.63
2022-11-29T05:21:49.601Z,101370.38
2022-11-29T05:24:37.947Z,101369.44
2022-11-29T05:27:13.593Z,101371.19
2022-11-29T05:29:49.901Z,101382.38
2022-11-29T05:32:53.804Z,101387.56
2022-11-29T05:36:06.941Z,101391.97
2022-11-29T05:38:39.362Z,101384.28
2022-11-29T05:41:31.948Z,101401.50
2022-11-29T05:44:24.459Z,101396.50
2022-11-29T05:46:51.020Z,101396.53
2022-11-29T05:49:33.692Z,101397.59
2022-11-29T05:52:24.604Z,101403.69
2022-11-29T05:55:22.314Z,101409.63
2022-11-29T05:58:04.455Z,101411.59
2022-11-29T06:00:49.152Z,101409.94
2022-11-29T06:03:37.155Z,101406.47
2022-11-29T06:06:20.377Z,101415.94
2022-11-29T06:08:55.602Z,101417.75
2022-11-29T06:11:31.357Z,101428.94
2022-11-29T06:14:08.615Z,101425.47
2022-11-29T06:17:20.377Z,101443.47
2022-11-29T06:20:04.290Z,101443.44
2022-11-29T06:22:30.889Z,101447.75
2022-11-29T06:25:17.596Z,101451.13
2022-11-29T06:28:08.502Z,101454.59
2022-11-29T06:31:03.529Z,101454.72
2022-11-29T06:33:41.023Z,101452.97
2022-11-29T06:36:28.472Z,101459.03
2022-11-29T06:38:55.172Z,101463.31
2022-11-29T06:41:23.696Z,101461.53
2022-11-29T06:43:51.159Z,101458.91
2022-11-29T06:46:39.122Z,101472.66
2022-11-29T06:49:25.180Z,101473.66
2022-11-29T06:52:14.300Z,101470.19
2022-11-29T06:54:53.031Z,101477.13
2022-11-29T06:57:36.836Z,101473.66
2022-11-29T07:00:15.283Z,101477.09
2022-11-29T07:02:52.697Z,101477.06
2022-11-29T07:05:33.989Z,101482.22
2022-11-29T07:08:07.118Z,101477.16
2022-11-29T07:10:36.145Z,101488.44
2022-11-29T07:13:03.105Z,101483.34
2022-11-29T07:15:29.927Z,101490.16
2022-11-29T07:18:27.292Z,101487.56
2022-11-29T07:20:59.531Z,101492.69
2022-11-29T07:23:43.184Z,101491.88
2022-11-29T07:26:30.962Z,101501.28
2022-11-29T07:29:35.969Z,101498.59
2022-11-29T07:32:02.873Z,101492.47
2022-11-29T07:34:38.232Z,101505.31
2022-11-29T07:37:24.094Z,101509.56
2022-11-29T07:40:03.764Z,101513.00
2022-11-29T07:42:48.537Z,101508.69
2022-11-29T07:45:28.728Z,101510.34
2022-11-29T07:47:55.695Z,101523.22
2022-11-29T07:50:22.375Z,101524.06
2022-11-29T07:52:49.129Z,101529.19
2022-11-29T07:55:19.449Z,101532.59
2022-11-29T07:57:46.591Z,101527.31
2022-11-29T08:00:14.005Z,101529.00
2022-11-29T08:02:41.382Z,101528.13
2022-11-29T08:05:08.879Z,101526.34
2022-11-29T08:07:37.296Z,101528.88
2022-11-29T08:10:10.204Z,101531.56
2022-11-29T08:12:36.869Z,101535.91
2022-11-29T08:15:03.584Z,101531.53
2022-11-29T08:17:30.272Z,101540.13
2022-11-29T08:20:01.187Z,101542.66
2022-11-29T08:22:30.633Z,101543.47
2022-11-29T08:24:58.073Z,101540.88
2022-11-29T08:27:24.512Z,101546.03
2022-11-29T08:29:51.021Z,101557.19
2022-11-29T08:32:17.620Z,101551.19
2022-11-29T08:34:44.608Z,101549.47
2022-11-29T08:37:12.000Z,101552.03
2022-11-29T08:39:38.431Z,101559.84
2022-11-29T08:42:05.003Z,101565.09
2022-11-29T08:44:31.530Z,101565.09
2022-11-29T08:47:16.686Z,101572.78
2022-11-29T08:50:01.343Z,101576.22
2022-11-29T08:52:54.168Z,101585.75
2022-11-29T08:55:22.715Z,101587.53
2022-11-29T08:57:50.449Z,101582.47
2022-11-29T09:00:18.751Z,101590.22
2022-11-29T09:02:45.230Z,101596.19
2022-11-29T09:05:12.000Z,101597.03
2022-11-29T09:07:38.938Z,101593.56
2022-11-29T09:10:08.387Z,101596.25
2022-11-29T09:12:36.366Z,101598.06
2022-11-29T09:15:09.038Z,101604.88
2022-11-29T09:17:35.547Z,101610.00
2022-11-29T09:20:02.111Z,101616.81
2022-11-29T09:22:28.678Z,101616.69
2022-11-29T09:24:55.147Z,101622.63
2022-11-29T09:27:21.615Z,101609.56
2022-11-29T09:29:48.089Z,101609.44
2022-11-29T09:32:14.586Z,101615.31
2022-11-29T09:34:42.408Z,101622.06
2022-11-29T09:37:09.607Z,101616.78
2022-11-29T09:39:36.133Z,101617.63
2022-11-29T09:42:09.707Z,101626.28
2022-11-29T09:45:01.897Z,101628.00
2022-11-29T09:48:13.983Z,101627.19
2022-11-29T09:50:48.621Z,101628.84
2022-11-29T09:53:21.164Z,101633.97
2022-11-29T09:56:04.902Z,101627.13
2022-11-29T09:58:41.719Z,101629.69
2022-11-29T10:01:13.140Z,101634.00
2022-11-29T10:03:47.057Z,101637.44
2022-11-29T10:06:13.455Z,101639.16
2022-11-29T10:08:53.748Z,101638.25
2022-11-29T10:11:35.310Z,101639.91
2022-11-29T10:14:11.994Z,101639.91
2022-11-29T10:16:49.506Z,101633.97
2022-11-29T10:19:21.447Z,101633.25
2022-11-29T10:22:00.836Z,101633.19
2022-11-29T10:24:29.338Z,101634.97
2022-11-29T10:26:55.923Z,101641.00
2022-11-29T10:29:23.323Z,101640.16
2022-11-29T10:31:49.860Z,101642.75
2022-11-29T10:34:20.044Z,101646.19
2022-11-29T10:36:49.533Z,101643.59
2022-11-29T10:39:29.854Z,101636.69
2022-11-29T10:42:00.402Z,101641.00
2022-11-29T10:44:27.412Z,101635.78
2022-11-29T10:46:56.251Z,101646.97
2022-11-29T10:49:27.800Z,101637.44
2022-11-29T10:51:54.464Z,101639.28
2022-11-29T10:54:41.872Z,101653.84
2022-11-29T10:57:18.250Z,101637.53
2022-11-29T11:00:11.784Z,101640.13
2022-11-29T11:02:38.534Z,101639.22
2022-11-29T11:05:18.553Z,101641.91
2022-11-29T11:07:47.484Z,101639.31
2022-11-29T11:10:27.628Z,101643.59
2022-11-29T11:13:20.881Z,101641.09
2022-11-29T11:15:47.665Z,101639.31
2022-11-29T11:18:22.781Z,101641.97
2022-11-29T11:20:58.915Z,101645.38
2022-11-29T11:23:56.618Z,101643.69
2022-11-29T11:26:24.158Z,101639.31
2022-11-29T11:28:56.570Z,101646.19
2022-11-29T11:31:35.578Z,101640.16
2022-11-29T11:34:23.908Z,101652.25
2022-11-29T11:36:50.405Z,101656.56
2022-11-29T11:39:23.933Z,101655.94
2022-11-29T11:42:10.409Z,101650.72
2022-11-29T11:44:58.044Z,101651.63
2022-11-29T11:47:35.815Z,101653.38
2022-11-29T11:50:02.360Z,101655.88
2022-11-29T11:52:30.625Z,101652.44
2022-11-29T11:55:19.197Z,101654.13
2022-11-29T11:57:45.727Z,101661.88
2022-11-29T12:01:02.948Z,101658.44
2022-11-29T12:03:43.958Z,101656.88
2022-11-29T12:06:31.827Z,101656.84
2022-11-29T12:09:04.948Z,101665.56
2022-11-29T12:11:41.988Z,101665.50
2022-11-29T12:14:18.840Z,101663.75
2022-11-29T12:16:49.020Z,101666.31
2022-11-29T12:19:23.448Z,101667.09
2022-11-29T12:21:56.578Z,101668.88
2022-11-29T12:24:34.329Z,101671.50
2022-11-29T12:27:04.804Z,101680.03
2022-11-29T12:29:34.491Z,101680.00
2022-11-29T12:32:04.078Z,101682.56
2022-11-29T12:34:36.426Z,101682.50
2022-11-29T12:37:19.211Z,101684.19
2022-11-29T12:39:57.406Z,101683.38
2022-11-29T12:42:42.320Z,101691.09
2022-11-29T12:45:17.830Z,101697.13
2022-11-29T12:48:10.234Z,101698.00
2022-11-29T12:50:51.873Z,101707.47
2022-11-29T12:53:42.247Z,101705.78
2022-11-29T12:56:15.990Z,101701.72
2022-11-29T12:59:21.251Z,101708.59
2022-11-29T13:02:18.637Z,101707.69
2022-11-29T13:05:03.349Z,101709.38
2022-11-29T13:07:38.376Z,101703.25
2022-11-29T13:10:29.863Z,101709.34
2022-11-29T13:13:04.892Z,101712.78
2022-11-29T13:15:42.673Z,101715.41
2022-11-29T13:18:35.661Z,101716.28
2022-11-29T13:21:12.835Z,101723.19
2022-11-29T13:26:30.198Z,101720.69
2022-11-29T13:28:58.073Z,101729.34
2022-11-29T13:31:25.630Z,101732.78
2022-11-29T13:34:10.489Z,101736.28
2022-11-29T13:36:45.986Z,101731.09
2022-11-29T13:39:25.081Z,101732.91
2022-11-29T13:41:58.805Z,101734.69
2022-11-29T13:45:17.069Z,101732.97
2022-11-29T13:47:55.558Z,101736.41
2022-11-29T13:50:40.139Z,101738.31
2022-11-29T13:53:13.546Z,101734.81
2022-11-29T13:56:01.932Z,101738.31
2022-11-29T13:58:28.400Z,101748.69
2022-11-29T14:01:01.450Z,101746.09
2022-11-29T14:03:29.917Z,101750.38
2022-11-29T14:06:02.465Z,101742.66
2022-11-29T14:08:48.029Z,101742.59
2022-11-29T14:11:32.048Z,101743.50
2022-11-29T14:14:04.777Z,101747.81
2022-11-29T14:16:43.466Z,101751.19
2022-11-29T14:19:13.075Z,101751.19
2022-11-29T14:22:07.349Z,101750.31
2022-11-29T14:24:36.960Z,101754.63
2022-11-29T14:27:06.443Z,101755.50
2022-11-29T14:29:56.092Z,101750.28
2022-11-29T14:32:29.272Z,101754.56
2022-11-29T14:35:10.721Z,101755.38
2022-11-29T14:37:40.288Z,101757.06
2022-11-29T14:40:42.365Z,101754.47
2022-11-29T14:43:24.797Z,101760.50
2022-11-29T14:46:10.321Z,101761.31
2022-11-29T14:48:38.242Z,101765.63
2022-11-29T14:51:12.574Z,101761.34
2022-11-29T14:53:41.351Z,101766.53
2022-11-29T14:56:29.621Z,101765.59
2022-11-29T14:59:33.579Z,101776.00
2022-11-29T15:02:05.116Z,101765.63
2022-11-29T15:04:35.413Z,101771.66
2022-11-29T15:07:03.048Z,101777.69
2022-11-29T15:09:32.495Z,101779.47
2022-11-29T15:12:03.256Z,101776.03
2022-11-29T15:14:37.614Z,101774.31
2022-11-29T15:17:30.537Z,101782.13
2022-11-29T15:20:27.440Z,101774.41
2022-11-29T15:22:58.381Z,101782.16
2022-11-29T15:25:28.366Z,101782.16
2022-11-29T15:27:56.023Z,101784.75
2022-11-29T15:30:30.795Z,101792.53
2022-11-29T15:32:59.797Z,101786.44
2022-11-29T15:35:26.926Z,101796.84
2022-11-29T15:37:54.394Z,101796.78
2022-11-29T15:40:23.538Z,101802.03
2022-11-29T15:43:12.347Z,101802.91
2022-11-29T15:45:39.886Z,101798.59
2022-11-29T15:48:21.461Z,101803.75
2022-11-29T15:50:53.600Z,101810.66
2022-11-29T15:53:25.589Z,101802.03
2022-11-29T15:55:57.134Z,101811.53
2022-11-29T15:58:26.094Z,101814.97
2022-11-29T16:00:53.443Z,101810.72
2022-11-29T16:03:33.215Z,101809.84
2022-11-29T16:06:08.388Z,101815.91
2022-11-29T16:08:40.532Z,101811.56
2022-11-29T16:11:12.150Z,101815.91
2022-11-29T16:13:40.459Z,101812.41
2022-11-29T16:16:16.348Z,101811.50
2022-11-29T16:18:45.209Z,101808.06
2022-11-29T16:21:26.078Z,101814.03
2022-11-29T16:23:53.562Z,101814.88
2022-11-29T16:26:29.022Z,101812.34
2022-11-29T16:28:59.096Z,101813.25
2022-11-29T16:31:35.743Z,101814.13
2022-11-29T16:34:18.427Z,101814.19
2022-11-29T16:36:44.924Z,101817.66
2022-11-29T16:39:24.457Z,101815.97
2022-11-29T16:42:12.387Z,101816.81
2022-11-29T16:44:45.314Z,101813.38
2022-11-29T16:47:22.467Z,101810.78
2022-11-29T16:50:07.555Z,101805.59
2022-11-29T16:52:34.225Z,101802.16
2022-11-29T16:55:01.091Z,101809.06
2022-11-29T16:57:29.234Z,101803.91
2022-11-29T16:59:55.711Z,101804.84
2022-11-29T17:02:22.954Z,101804.88
2022-11-29T17:04:51.035Z,101807.56
2022-11-29T17:07:29.651Z,101808.47
2022-11-29T17:09:57.001Z,101818.00
2022-11-29T17:12:24.469Z,101818.88
2022-11-29T17:14:51.026Z,101818.06
2022-11-29T17:17:19.097Z,101810.38
2022-11-29T17:19:45.871Z,101817.31
2022-11-29T17:22:12.502Z,101818.22
2022-11-29T17:24:44.756Z,101821.72
2022-11-29T17:27:14.458Z,101818.28
2022-11-29T17:29:40.935Z,101810.53
2022-11-29T17:32:07.437Z,101815.75
2022-11-29T17:34:34.020Z,101820.09
2022-11-29T17:37:00.566Z,101821.00
2022-11-29T17:39:26.988Z,101815.81
2022-11-29T17:41:53.524Z,101820.16
2022-11-29T17:44:19.994Z,101824.47
2022-11-29T17:46:46.621Z,101829.63
2022-11-29T17:49:13.354Z,101827.91
2022-11-29T17:51:51.797Z,101825.34
2022-11-29T17:54:19.131Z,101825.34
2022-11-29T17:56:45.590Z,101833.16
2022-11-29T17:59:12.097Z,101834.03
2022-11-29T18:01:38.635Z,101840.97
2022-11-29T18:04:06.090Z,101843.56
2022-11-29T18:06:38.435Z,101847.00
2022-11-29T18:09:07.639Z,101845.28
2022-11-29T18:11:47.453Z,101838.41
2022-11-29T18:14:18.215Z,101848.75
2022-11-29T18:16:45.758Z,101851.34
2022-11-29T18:19:18.250Z,101847.09
2022-11-29T18:21:44.878Z,101847.97
2022-11-29T18:24:11.959Z,101854.00
2022-11-29T18:26:39.132Z,101857.44
2022-11-29T18:29:06.589Z,101863.50
2022-11-29T18:31:36.168Z,101859.19
2022-11-29T18:34:09.750Z,101861.75
2022-11-29T18:36:40.268Z,101856.53
2022-11-29T18:39:09.124Z,101863.41
2022-11-29T18:41:36.581Z,101855.66
2022-11-29T18:44:08.634Z,101862.56
2022-11-29T18:46:37.483Z,101859.16
2022-11-29T18:49:06.616Z,101860.94
2022-11-29T18:51:34.576Z,101862.66
2022-11-29T18:54:01.527Z,101855.69
2022-11-29T18:56:31.123Z,101865.22
2022-11-29T18:59:00.042Z,101864.34
2022-11-29T19:01:29.285Z,101867.03
2022-11-29T19:03:58.855Z,101869.66
2022-11-29T19:06:29.397Z,101867.97
2022-11-29T19:09:00.874Z,101865.44
2022-11-29T19:11:29.698Z,101874.00
2022-11-29T19:14:04.379Z,101881.75
2022-11-29T19:16:33.754Z,101877.44
2022-11-29T19:19:01.181Z,101882.63
2022-11-29T19:21:30.083Z,101882.63
2022-11-29T19:23:59.224Z,101884.34
2022-11-29T19:26:27.871Z,101882.59
2022-11-29T19:28:55.122Z,101885.13
2022-11-29T19:31:27.385Z,101888.56
2022-11-29T19:33:55.551Z,101888.56
2022-11-29T19:36:30.561Z,101889.44
2022-11-29T19:38:59.652Z,101881.69
2022-11-29T19:41:29.313Z,101887.66
2022-11-29T19:43:57.575Z,101885.03
2022-11-29T19:46:27.130Z,101896.25
2022-11-29T19:48:55.647Z,101884.19
2022-11-29T19:51:22.941Z,101888.50
2022-11-29T19:53:53.618Z,101885.03
2022-11-29T19:56:23.644Z,101887.66
2022-11-29T19:58:50.844Z,101885.94
2022-11-29T20:01:18.716Z,101891.16
2022-11-29T20:03:45.926Z,101892.88
2022-11-29T20:06:13.675Z,101896.25
2022-11-29T20:08:41.113Z,101903.13
2022-11-29T20:11:13.318Z,101902.28
2022-11-29T20:13:41.421Z,101902.31
2022-11-29T20:16:13.836Z,101905.78
2022-11-29T20:18:48.802Z,101911.78
2022-11-29T20:21:31.835Z,101912.63
2022-11-29T20:24:04.315Z,101901.44
2022-11-29T20:26:32.979Z,101910.09
2022-11-29T20:29:00.158Z,101911.81
2022-11-29T20:31:26.667Z,101910.06
2022-11-29T20:33:55.131Z,101911.81
2022-11-29T20:36:32.968Z,101917.81
2022-11-29T20:39:11.529Z,101917.78
2022-11-29T20:41:46.470Z,101921.19
2022-11-29T20:44:38.714Z,101922.09
2022-11-29T20:47:17.962Z,101921.19
2022-11-29T20:49:46.973Z,101917.72
2022-11-29T20:52:25.805Z,101921.16
2022-11-29T20:54:52.417Z,101921.16
2022-11-29T20:57:18.837Z,101921.16
2022-11-29T20:59:45.635Z,101919.41
2022-11-29T21:02:12.775Z,101922.00
2022-11-29T21:04:39.456Z,101925.44
2022-11-29T21:07:05.895Z,101927.19
2022-11-29T21:09:32.371Z,101926.28
2022-11-29T21:11:59.282Z,101931.47
2022-11-29T21:14:26.050Z,101928.84
2022-11-29T21:16:52.772Z,101928.84
2022-11-29T21:19:24.691Z,101924.53
2022-11-29T21:22:15.447Z,101927.97
2022-11-29T21:24:53.042Z,101927.97
2022-11-29T21:27:26.899Z,101933.13
2022-11-29T21:29:53.726Z,101929.72
2022-11-29T21:32:25.383Z,101929.72
2022-11-29T21:34:52.245Z,101932.31
2022-11-29T21:37:22.696Z,101937.44
2022-11-29T21:39:51.729Z,101934.00
2022-11-29T21:42:18.631Z,101935.72
2022-11-29T21:44:45.644Z,101932.25
2022-11-29T21:47:12.736Z,101925.34
2022-11-29T21:49:39.618Z,101929.59
2022-11-29T21:52:06.751Z,101934.81
2022-11-29T21:54:33.671Z,101930.50
2022-11-29T21:57:00.139Z,101930.53
2022-11-29T21:59:28.051Z,101933.97
2022-11-29T22:01:55.113Z,101937.41
2022-11-29T22:04:22.066Z,101927.94
2022-11-29T22:06:48.577Z,101937.34
2022-11-29T22:09:15.075Z,101935.66
2022-11-29T22:11:41.586Z,101932.19
2022-11-29T22:14:16.459Z,101939.09
2022-11-29T22:16:43.932Z,101945.13
2022-11-29T22:19:14.363Z,101939.13
2022-11-29T22:21:42.313Z,101937.41
2022-11-29T22:24:10.423Z,101940.88
2022-11-29T22:26:37.775Z,101935.69
2022-11-29T22:29:05.240Z,101933.13
2022-11-29T22:31:32.023Z,101940.00
2022-11-29T22:33:59.030Z,101932.22
2022-11-29T22:36:25.630Z,101940.81
2022-11-29T22:38:52.121Z,101941.69
2022-11-29T22:41:18.773Z,101940.81
2022-11-29T22:43:45.577Z,101950.28
2022-11-29T22:46:17.936Z,101949.44
2022-11-29T22:48:46.284Z,101942.53
2022-11-29T22:51:15.333Z,101937.34
2022-11-29T22:53:48.275Z,101942.50
2022-11-29T22:56:14.984Z,101940.75
2022-11-29T22:58:41.632Z,101945.03
2022-11-29T23:01:16.776Z,101939.91
2022-11-29T23:03:46.264Z,101937.34
2022-11-29T23:06:17.511Z,101936.47
2022-11-29T23:08:46.240Z,101934.72
2022-11-29T23:11:15.366Z,101946.75
2022-11-29T23:13:43.839Z,101945.94
2022-11-29T23:16:13.882Z,101952.84
2022-11-29T23:18:42.318Z,101956.31
2022-11-29T23:21:27.376Z,101953.72
2022-11-29T23:23:56.789Z,101956.34
2022-11-29T23:26:26.434Z,101952.03
2022-11-29T23:28:54.453Z,101954.56
2022-11-29T23:31:21.775Z,101962.38
2022-11-29T23:33:48.380Z,101958.03
2022-11-29T23:36:16.377Z,101962.38
2022-11-29T23:38:43.551Z,101960.66
2022-11-29T23:41:10.839Z,101961.56
2022-11-29T23:43:38.883Z,101955.56
2022-11-29T23:46:12.194Z,101957.31
2022-11-29T23:48:38.966Z,101958.19
2022-11-29T23:51:05.794Z,101956.44
2022-11-29T23:53:33.107Z,101959.88
2022-11-29T23:56:04.569Z,101954.75
2022-11-29T23:58:31.645Z,101957.28
